ESSA Airport Information

Runway Information
Runway 01L Length 10830 ft width 148 ft
Elevation 98 ft Threshold 0 ft Heading 10
Runway 19R Length 10830 ft Width 148 ft
Elevation 118 ft Threshold 0 ft Heading 190
Runway 01R Length 8201 ft width 148 ft
Elevation 137 ft Threshold 0 ft Heading 10
Runway 19L Length 8201 ft Width 148 ft
Elevation 98 ft Threshold 0 ft Heading 190
Runway 08 Length 8202 ft width 148 ft
Elevation 108 ft Threshold 0 ft Heading 76
Runway 26 Length 8202 ft Width 148 ft
Elevation 124 ft Threshold 0 ft Heading 256
Airport Frequencies
Type APP Name STOCKHOLM Frequency 123.75 MHZ
Type ATIS Name ATIS Frequency 119 MHZ
Type CLD Name CLNC DEL Frequency 121.825 MHZ
Type GND Name GND Frequency 121.7 MHZ
Type PMSV Name MET OFFICE Frequency 122.6 MHZ
Type TWR Name TWR Frequency 118.5 MHZ
Airport Navaids
Type VOR-DME Name Arlanda Frequency 116000 KHZ
Type NDB Name Arlanda Frequency 352 KHZ
Type NDB Name Arlanda Frequency 360 KHZ
Type NDB Name Arlanda Frequency 404 KHZ
Type NDB Name Arlanda Frequency 370 KHZ
Airport Weather Information & NOTAM
ADDS - METARS form results

(0826 UTC 20 January 2022)
Data provider http://aviationweather.gov/metar/data/
 
METAR text: ESSA 200820Z 32020KT 9999 BKN043 M04/M06 Q0992 NOSIG
Conditions at: ESSA (STOCKHOLM/ARLAND, SE) observed 0820 UTC 20 January 2022
Temperature: -4.0°C (25°F)
Dewpoint: -6.0°C (21°F) [RH = 86%]
Pressure (altimeter): 29.29 inches Hg (992.0 mb)
Winds: from the NW (320 degrees) at 23 MPH (20 knots; 10.3 m/s)
Visibility: 6 or more miles (10+ km)
Ceiling: 4300 feet AGL
Clouds: broken clouds at 4300 feet AGL
Weather: no significant weather observed at this time

METAR text: ESSA 200750Z 32016KT 9999 BKN039 M04/M06 Q0991 NOSIG
Conditions at: ESSA (STOCKHOLM/ARLAND, SE) observed 0750 UTC 20 January 2022
Temperature: -4.0°C (25°F)
Dewpoint: -6.0°C (21°F) [RH = 86%]
Pressure (altimeter): 29.26 inches Hg (991.0 mb)
Winds: from the NW (320 degrees) at 18 MPH (16 knots; 8.2 m/s)
Visibility: 6 or more miles (10+ km)
Ceiling: 3900 feet AGL
Clouds: broken clouds at 3900 feet AGL
Weather: no significant weather observed at this time

Forecast for: AMD
Text: TAF AMD ESSA 200546Z 2006/2106 35020G30KT 9999 SCT030
Forecast period: 0600 UTC 20 January 2022 to 0600 UTC 21 January 2022
Forecast type: FROM: standard forecast or significant change
Winds: from the N (350 degrees) at 23 MPH (20 knots; 10.3 m/s)
gusting to 34 MPH (30 knots; 15.4 m/s)
Visibility: 6 or more miles (10+ km)
Ceiling: at least 12,000 feet AGL
Clouds: scattered clouds at 3000 feet AGL
Weather: no significant weather forecast for this period